Flight Track Log - Related Links

Times and Time Zones

All times are in EDT time to prevent confusion due to time zone crossing. See the KAP3 flight status page for this flight to view local times or setup timezone preferences in your user account.


Time Position Orientation Groundspeed Altitude Reporting Facility
EDT Latitude Longitude Course Direction KTS MPH feet Rate Location/Type
Fri 03:22:19 PM 42.3667 -71.0167 200° South 95 109 500  Level KA90
Fri 03:23:19 PM 42.3333 -71.0333 200° South 88 101 1,000 500 Climbing KA90
Fri 03:24:19 PM 42.3167 -71.0500 216° Southwest 89 102 1,500 574 Climbing KA90
Fri 03:25:14 PM 42.3000 -71.0667 216° Southwest 93 107 2,100 574 Climbing KA90
Fri 03:26:14 PM 42.2833 -71.0500 144° Southeast 108 124 2,600 454 Climbing KA90
Fri 03:27:13 PM 42.2500 -71.0333 160° South 115 132 3,000 364 Climbing KA90
Fri 03:28:26 PM 42.2167 -71.0000 143° Southeast 129 148 3,400 248 Climbing KA90
Fri 03:29:14 PM 42.1833 -70.9833 160° South 136 157 3,500  Climbing KA90
Fri 03:30:08 PM 42.1500 -70.9667 160° South 156 180 3,400 -111 Descending KA90
Fri 03:32:00 PM 42.0864 -70.9367 160° South  Level Estimated
Fri 03:39:00 PM 41.8557 -70.7889 161° South  Level FlightAware Approximate
Fri 03:40:00 PM 41.8216 -70.7734 161° South  Level FlightAware Approximate
Fri 03:41:00 PM 41.7874 -70.7579 161° South  Level FlightAware Approximate
Fri 03:42:00 PM 41.7532 -70.7423 161° South  Level FlightAware Approximate
Fri 03:43:00 PM 41.7188 -70.7279 164° South  Level FlightAware Approximate
Fri 03:44:00 PM 41.6841 -70.7148 164° South  Level FlightAware Approximate
Fri 03:45:00 PM 41.6493 -70.7018 164° South  Level FlightAware Approximate
Fri 03:46:00 PM 41.6146 -70.6888 164° South  Level FlightAware Approximate
Fri 03:47:00 PM 41.5798 -70.6758 164° South  Level FlightAware Approximate
Fri 03:48:00 PM 41.5451 -70.6627 164° South  Level FlightAware Approximate
Fri 03:49:00 PM 41.5104 -70.6497 164° South  Level FlightAware Approximate
Fri 03:50:00 PM 41.4756 -70.6367 164° South  Level FlightAware Approximate
Fri 03:51:00 PM 41.4410 -70.6231 163° South  Level FlightAware Approximate
Fri 03:52:00 PM 41.4065 -70.6092 163° South  Level FlightAware Approximate
Fri 03:53:00 PM 41.3934 -70.6139 163° South  Level Estimated
Fri 03:54:00 PM 41.3934 -70.6139 163° South  Level Estimated
Fri 03:55:00 PM 41.3934 -70.6139 163° South  Level Estimated
Fri 03:56:00 PM 41.3934 -70.6139 163° South  Level Estimated
Fri 03:57:00 PM 41.3934 -70.6139 163° South  Level Estimated
Fri 03:58:00 PM 41.3934 -70.6139 163° South  Level Estimated

Login

Don't have an account? Register now (free) for customized features, flight alerts, and more!